Latest Weather Observations for Campania

IDT60901

Issued at 6:01 pm EDT Monday 30 March 2015 (issued every 10 minutes, with the page automatically refreshed every 10 minutes)

About weather observations | Map of Hobart area stations | Latest observations for Hobart area | Other Formats
Station Details ID: 094212 Name: CAMPANIA (KINCORA) Lat: -42.69 Lon: 147.43 Height: 45.0 m
Data from the previous 72 hours. | See also: Recent months at Campania
Date/Time
EDT
Tmp

°C
App
Tmp
°C
Dew
Point
°C
Rel
Hum
%
Delta-T

°C
Wind Press
QNH
hPa
Press
MSL
hPa
Rain
since
9 am
mm
Dir
 
Spd
km/h
Gust
km/h
Spd
kts
Gust
kts
30/06:00pm 19.7 15.2 8.4 48 5.9 WSW 22 33 12 18 - - 0.2
30/05:30pm 20.9 16.9 8.9 46 6.4 SW 20 30 11 16 - - 0.2
30/05:00pm 21.6 17.4 9.8 47 6.4 SW 22 32 12 17 - - 0.2
30/04:30pm 21.5 17.1 9.1 45 6.6 W 22 33 12 18 - - 0.2
30/04:00pm 22.3 18.7 8.4 41 7.4 WNW 17 26 9 14 - - 0.2
30/03:30pm 22.5 18.7 9.0 42 7.2 W 19 28 10 15 - - 0.2
30/03:00pm 22.5 18.3 9.6 44 7.0 NW 22 37 12 20 - - 0.2
30/02:30pm 22.3 18.1 8.4 41 7.4 NW 20 32 11 17 - - 0.2
30/02:00pm 22.1 17.9 9.6 45 6.7 NW 22 37 12 20 - - 0.0
30/01:30pm 20.7 18.5 10.8 53 5.4 WNW 13 22 7 12 - - 0.0
30/01:00pm 19.7 17.1 10.7 56 4.9 WNW 15 24 8 13 - - 0.0
30/12:30pm 19.4 17.5 10.4 56 4.9 WNW 11 19 6 10 - - 0.0
30/12:00pm 18.8 16.9 10.4 58 4.5 NNW 11 17 6 9 - - 0.0
30/11:30am 18.9 17.0 10.5 58 4.5 WNW 11 15 6 8 - - 0.0
30/11:00am 18.6 16.9 9.9 57 4.6 NW 9 15 5 8 - - 0.0
30/10:30am 18.0 16.8 9.6 58 4.4 WNW 6 11 3 6 - - 0.0
30/10:00am 17.4 15.5 9.1 58 4.3 NNW 9 11 5 6 - - 0.0
30/09:30am 16.6 15.3 9.1 61 3.9 N 6 9 3 5 - - 0.0
30/09:00am 14.3 13.2 10.5 78 2.0 N 7 9 4 5 - - 1.0
30/08:30am 12.8 11.9 9.3 79 1.8 N 4 9 2 5 - - 1.0
30/08:00am 11.1 9.4 8.5 84 1.3 NNW 7 11 4 6 - - 1.0
30/07:30am 12.1 11.3 8.0 76 2.0 WNW 2 7 1 4 - - 1.0
30/07:00am 11.4 9.8 8.1 80 1.6 WSW 6 9 3 5 - - 1.0
30/06:30am 11.7 10.2 9.1 84 1.3 NNW 7 11 4 6 - - 1.0
30/06:00am 9.1 7.5 8.6 97 0.2 NNW 7 11 4 6 - - 1.0
30/05:30am 7.7 5.7 7.3 97 0.2 NNW 7 11 4 6 - - 1.0
30/05:00am 7.1 5.2 6.7 97 0.2 NW 6 7 3 4 - - 1.0
30/04:30am 7.3 5.8 6.9 97 0.2 S 4 7 2 4 - - 1.0
30/04:00am 7.2 6.4 6.6 96 0.3 CALM 0 4 0 2 - - 1.0
30/03:30am 7.7 7.0 7.1 96 0.3 CALM 0 0 0 0 - - 1.0
30/03:00am 8.1 7.5 7.5 96 0.3 CALM 0 0 0 0 - - 1.0
30/02:30am 8.4 6.8 7.8 96 0.3 NW 6 11 3 6 - - 1.0
30/02:00am 8.8 7.1 8.2 96 0.3 NNW 7 15 4 8 - - 1.0
30/01:30am 9.0 6.6 8.5 97 0.2 NNW 11 13 6 7 - - 1.0
30/01:00am 8.2 6.4 7.8 97 0.2 NNW 7 9 4 5 - - 1.0
30/12:30am 7.5 6.8 6.9 96 0.3 CALM 0 0 0 0 - - 1.0
30/12:00am 8.8 8.4 8.2 96 0.3 CALM 0 4 0 2 - - 1.0
 
Date/Time
EDT
Tmp

°C
App
Tmp
°C
Dew
Point
°C
Rel
Hum
%
Delta-T

°C
Wind Press
QNH
hPa
Press
MSL
hPa
Rain
since
9 am
mm
Dir
 
Spd
km/h
Gust
km/h
Spd
kts
Gust
kts
29/11:30pm 8.8 8.4 8.2 96 0.3 CALM 0 0 0 0 - - 1.0
29/11:00pm 10.5 9.4 9.9 96 0.3 NE 6 9 3 5 - - 1.0
29/10:30pm 10.5 9.1 9.7 95 0.4 N 7 9 4 5 - - 1.0
29/10:00pm 11.1 9.9 10.2 94 0.5 N 7 9 4 5 - - 1.0
29/09:30pm 11.7 10.6 10.8 94 0.5 NNE 7 9 4 5 - - 1.0
29/09:00pm 12.1 11.2 10.8 92 0.7 N 6 7 3 4 - - 1.0
29/08:30pm 12.6 13.0 11.2 91 0.7 CALM 0 0 0 0 - - 1.0
29/08:00pm 13.2 13.6 11.3 88 1.0 CALM 0 0 0 0 - - 1.0
29/07:30pm 13.3 13.7 11.4 88 1.0 CALM 0 0 0 0 - - 1.0
29/07:00pm 13.4 12.1 11.3 87 1.1 SSW 9 11 5 6 - - 1.0
29/06:30pm 13.5 11.9 11.4 87 1.1 SSW 11 13 6 7 - - 1.0
29/06:00pm 13.5 11.9 11.4 87 1.1 S 11 15 6 8 - - 1.0
29/05:30pm 13.7 11.4 11.7 88 1.1 S 15 20 8 11 - - 1.0
29/05:00pm 13.5 11.2 11.7 89 1.0 S 15 20 8 11 - - 1.0
29/04:30pm 13.8 11.6 12.0 89 1.0 SE 15 24 8 13 - - 0.6
29/04:00pm 14.7 13.2 13.1 90 0.9 ESE 13 20 7 11 - - 0.6
29/03:30pm 14.8 13.4 13.5 92 0.7 SE 13 19 7 10 - - 0.6
29/03:00pm 15.3 12.1 13.1 87 1.2 S 22 28 12 15 - - 0.2
29/02:30pm 18.4 13.8 11.0 62 4.0 WSW 26 37 14 20 - - 0.0
29/02:00pm 19.8 16.0 9.7 52 5.4 WNW 20 37 11 20 - - 0.0
29/01:30pm 19.8 15.9 9.4 51 5.5 NW 20 32 11 17 - - 0.0
29/01:00pm 19.5 14.8 9.4 52 5.4 NW 24 37 13 20 - - 0.0
29/12:36pm 18.5 12.8 8.5 52 5.2 NW 28 46 15 25 - - 0.0
29/12:30pm 18.5 13.7 8.7 53 5.1 NW 24 35 13 19 - - 0.0
29/12:04pm 18.6 13.0 8.6 52 5.2 NW 28 56 15 30 - - 0.0
29/12:00pm 18.6 13.5 9.1 54 5.0 NW 26 37 14 20 - - 0.0
29/11:30am 17.6 13.5 8.7 56 4.6 NW 20 35 11 19 - - 0.0
29/11:00am 17.0 12.0 7.9 55 4.6 NNW 24 35 13 19 - - 0.0
29/10:30am 16.4 12.6 7.6 56 4.4 NNW 17 24 9 13 - - 0.0
29/10:00am 16.0 11.2 7.5 57 4.2 N 22 33 12 18 - - 0.0
29/09:30am 15.9 11.2 7.9 59 4.0 N 22 32 12 17 - - 0.0
29/09:00am 14.5 9.6 7.1 61 3.6 N 22 33 12 18 - - 0.0
29/08:30am 13.9 9.0 7.0 63 3.4 N 22 32 12 17 - - 0.0
29/08:00am 12.7 7.3 6.3 65 3.0 N 24 30 13 16 - - 0.0
29/07:30am 12.0 7.0 6.3 68 2.7 N 22 32 12 17 - - 0.0
29/07:00am 12.0 6.5 5.9 66 2.9 N 24 33 13 18 - - 0.0
29/06:30am 12.3 6.0 5.7 64 3.1 N 28 41 15 22 - - 0.0
29/06:00am 12.6 6.7 6.0 64 3.1 N 26 32 14 17 - - 0.0
29/05:30am 12.4 7.3 6.0 65 3.0 N 22 35 12 19 - - 0.0
29/05:00am 12.6 7.9 6.0 64 3.1 NNW 20 30 11 16 - - 0.0
29/04:30am 12.1 7.6 6.2 67 2.8 NNW 19 33 10 18 - - 0.0
29/04:00am 12.0 7.5 6.3 68 2.7 NNW 19 22 10 12 - - 0.0
29/03:30am 11.3 7.2 6.2 71 2.4 NNW 17 22 9 12 - - 0.0
29/03:00am 9.4 6.0 5.9 79 1.6 N 13 15 7 8 - - 0.0
29/02:30am 11.9 7.9 6.6 70 2.5 NNW 17 20 9 11 - - 0.0
29/02:00am 9.7 6.4 6.4 80 1.5 N 13 19 7 10 - - 0.0
29/01:30am 8.7 5.4 6.2 84 1.1 N 13 15 7 8 - - 0.0
29/01:00am 8.7 6.1 6.0 83 1.2 N 9 11 5 6 - - 0.0
29/12:30am 10.0 6.8 6.9 81 1.5 NW 13 15 7 8 - - 0.0
29/12:00am 10.2 6.3 6.9 80 1.6 N 17 19 9 10 - - 0.0
 
Date/Time
EDT
Tmp

°C
App
Tmp
°C
Dew
Point
°C
Rel
Hum
%
Delta-T

°C
Wind Press
QNH
hPa
Press
MSL
hPa
Rain
since
9 am
mm
Dir
 
Spd
km/h
Gust
km/h
Spd
kts
Gust
kts
28/11:30pm 9.2 6.5 7.2 87 0.9 NNE 11 13 6 7 - - 0.0
28/11:00pm 10.0 7.7 7.4 84 1.2 NE 9 13 5 7 - - 0.0
28/10:30pm 9.8 7.6 7.9 88 0.9 NNE 9 11 5 6 - - 0.0
28/10:00pm 10.4 8.3 8.2 86 1.1 N 9 13 5 7 - - 0.0
28/09:30pm 10.0 8.1 7.6 85 1.1 N 7 9 4 5 - - 0.0
28/09:00pm 11.1 9.1 8.5 84 1.3 NNW 9 11 5 6 - - 0.0
28/08:30pm 12.0 11.2 8.3 78 1.8 NE 2 6 1 3 - - 0.0
28/08:00pm 13.1 11.3 8.0 71 2.5 SW 7 13 4 7 - - 0.0
28/07:30pm 14.2 11.7 8.2 67 3.0 SW 11 13 6 7 - - 0.0
28/07:00pm 14.6 11.8 8.5 67 3.1 S 13 17 7 9 - - 0.0
28/06:30pm 16.4 12.4 8.1 58 4.2 S 19 24 10 13 - - 0.0
28/06:00pm 18.2 14.6 8.2 52 5.1 S 17 22 9 12 - - 0.0
28/05:30pm 19.8 16.7 7.2 44 6.4 W 13 20 7 11 - - 0.0
28/05:00pm 20.2 16.9 6.2 40 7.0 W 13 19 7 10 - - 0.0
28/04:30pm 19.9 16.8 7.3 44 6.4 W 13 20 7 11 - - 0.0
28/04:00pm 19.9 17.0 6.6 42 6.7 WNW 11 19 6 10 - - 0.0
28/03:30pm 19.8 16.3 7.2 44 6.4 WNW 15 24 8 13 - - 0.0
28/03:00pm 19.0 15.5 7.4 47 5.9 W 15 20 8 11 - - 0.0
28/02:30pm 18.9 15.4 7.4 47 5.8 WNW 15 24 8 13 - - 0.0
28/02:00pm 18.2 14.8 7.6 50 5.4 W 15 20 8 11 - - 0.0
28/01:30pm 17.6 14.1 7.1 50 5.3 NNW 15 22 8 12 - - 0.0
28/01:00pm 16.6 12.5 6.4 51 5.0 W 17 26 9 14 - - 0.0
28/12:30pm 16.3 12.2 6.4 52 4.8 W 17 26 9 14 - - 0.0
28/12:00pm 15.5 12.0 7.0 57 4.2 NW 15 22 8 12 - - 0.0
28/11:30am 15.3 11.0 7.1 58 4.0 W 19 24 10 13 - - 0.0
28/11:00am 14.8 11.2 6.9 59 3.9 NW 15 24 8 13 - - 0.0
28/10:30am 13.9 10.2 6.5 61 3.6 WNW 15 20 8 11 - - 0.0
28/10:00am 13.4 10.2 6.7 64 3.2 NNW 13 19 7 10 - - 0.0
28/09:30am 13.2 9.9 6.3 63 3.3 N 13 20 7 11 - - 0.0
28/09:00am 12.4 9.7 7.3 71 2.5 NNE 11 15 6 8 - - 2.0
28/08:30am 10.6 8.6 7.1 79 1.7 NNE 7 9 4 5 - - 2.0
28/08:00am 8.5 6.4 6.5 87 0.9 N 7 9 4 5 - - 2.0
28/07:30am 7.1 4.8 4.9 86 1.0 NNW 6 9 3 5 - - 2.0
28/07:00am 8.0 5.4 6.1 88 0.9 NNW 9 13 5 7 - - 2.0
28/06:30am 8.5 6.2 5.8 83 1.2 NW 7 9 4 5 - - 2.0
28/06:00am 10.2 8.1 6.7 79 1.6 W 7 11 4 6 - - 2.0
28/05:30am 11.6 8.8 6.9 73 2.2 W 11 17 6 9 - - 2.0
28/05:00am 11.4 8.3 7.1 75 2.1 W 13 15 7 8 - - 2.0
28/04:30am 11.3 8.1 6.8 74 2.1 W 13 17 7 9 - - 2.0
28/04:00am 11.7 8.9 7.0 73 2.3 W 11 17 6 9 - - 2.0
28/03:30am 11.3 8.9 7.0 75 2.1 W 9 13 5 7 - - 2.0
28/03:00am 11.6 8.8 7.1 74 2.2 W 11 13 6 7 - - 2.0
28/02:30am 11.8 9.1 7.3 74 2.2 W 11 17 6 9 - - 2.0
28/02:00am 12.3 8.9 7.8 74 2.2 W 15 20 8 11 - - 2.0
28/01:30am 12.5 8.8 7.8 73 2.3 W 17 22 9 12 - - 2.0
28/01:00am 12.5 8.5 8.4 76 2.0 WSW 19 26 10 14 - - 2.0
28/12:30am 12.6 8.7 8.5 76 2.0 W 19 26 10 14 - - 2.0
28/12:00am 12.2 11.0 9.4 83 1.4 W 6 11 3 6 - - 2.0
 
Date/Time
EDT
Tmp

°C
App
Tmp
°C
Dew
Point
°C
Rel
Hum
%
Delta-T

°C
Wind Press
QNH
hPa
Press
MSL
hPa
Rain
since
9 am
mm
Dir
 
Spd
km/h
Gust
km/h
Spd
kts
Gust
kts
27/11:30pm 12.0 9.9 9.6 85 1.2 SSE 11 13 6 7 - - 2.0
27/11:00pm 12.9 10.6 9.0 77 2.0 S 11 22 6 12 - - 2.0
27/10:30pm 13.2 10.0 8.5 73 2.4 SSW 15 20 8 11 - - 2.0
27/10:00pm 13.0 9.9 8.9 76 2.1 S 15 19 8 10 - - 2.0
27/09:30pm 13.2 9.1 8.7 74 2.3 SSW 20 30 11 16 - - 2.0
27/09:00pm 13.2 9.3 8.7 74 2.3 SSW 19 24 10 13 - - 2.0
27/08:30pm 12.3 10.8 9.3 82 1.5 S 7 11 4 6 - - 2.0
27/08:00pm 13.1 9.2 8.8 75 2.2 SSW 19 26 10 14 - - 2.0
27/07:30pm 12.6 9.3 9.4 81 1.6 SSW 17 20 9 11 - - 2.0
27/07:00pm 12.7 9.4 9.7 82 1.5 S 17 20 9 11 - - 2.0
27/06:30pm 12.6 9.0 10.0 84 1.3 S 19 24 10 13 - - 2.0

Latest Capital City Observations: Canberra | Sydney | Melbourne | Brisbane | Adelaide | Perth | Hobart | Darwin

Other Formats:

Comma delimited format used in spreadsheet applications
http://www.bom.gov.au/fwo/IDT60901/IDT60901.95972.axf

JavaScript Object Notation format (JSON) in row-major order
http://www.bom.gov.au/fwo/IDT60901/IDT60901.95972.json